createdAt,value
2023-01-09T00:02:24.982Z,8.85
2023-01-09T00:05:27.821Z,8.87
2023-01-09T00:08:30.459Z,8.89
2023-01-09T00:11:33.671Z,8.95
2023-01-09T00:14:37.662Z,8.97
2023-01-09T00:17:40.574Z,8.99
2023-01-09T00:20:43.279Z,8.98
2023-01-09T00:23:46.123Z,8.93
2023-01-09T00:26:48.846Z,8.95
2023-01-09T00:29:52.864Z,8.96
2023-01-09T00:32:56.380Z,8.94
2023-01-09T00:35:59.138Z,8.90
2023-01-09T00:39:01.952Z,8.89
2023-01-09T00:42:06.059Z,8.91
2023-01-09T00:45:14.355Z,8.92
2023-01-09T00:48:24.997Z,8.91
2023-01-09T00:51:27.927Z,8.93
2023-01-09T00:54:31.825Z,8.93
2023-01-09T00:57:34.529Z,9.01
2023-01-09T01:00:38.944Z,9.00
2023-01-09T01:03:41.888Z,9.06
2023-01-09T01:07:01.966Z,9.12
2023-01-09T01:10:05.082Z,9.09
2023-01-09T01:13:08.303Z,9.13
2023-01-09T01:16:14.211Z,9.13
2023-01-09T01:19:16.871Z,9.14
2023-01-09T01:22:19.716Z,9.15
2023-01-09T01:25:23.016Z,9.20
2023-01-09T01:28:25.796Z,9.23
2023-01-09T01:31:29.811Z,9.17
2023-01-09T01:34:32.534Z,9.10
2023-01-09T01:37:35.599Z,9.12
2023-01-09T01:40:40.265Z,9.06
2023-01-09T01:43:50.715Z,9.05
2023-01-09T01:46:57.040Z,9.02
2023-01-09T01:50:00.692Z,9.00
2023-01-09T01:53:10.508Z,9.03
2023-01-09T01:56:17.993Z,9.01
2023-01-09T01:59:25.173Z,9.03
2023-01-09T02:02:32.124Z,9.00
2023-01-09T02:05:36.058Z,9.04
2023-01-09T02:08:38.878Z,9.04
2023-01-09T02:11:45.502Z,9.02
2023-01-09T02:14:49.588Z,9.03
2023-01-09T02:18:16.555Z,9.03
2023-01-09T02:21:27.966Z,9.01
2023-01-09T02:24:51.859Z,9.04
2023-01-09T02:28:18.155Z,8.98
2023-01-09T02:31:29.459Z,8.95
2023-01-09T02:34:40.675Z,8.91
2023-01-09T02:37:51.053Z,8.95
2023-01-09T02:40:59.270Z,9.05
2023-01-09T02:44:28.093Z,9.07
2023-01-09T02:47:41.331Z,9.11
2023-01-09T02:50:51.945Z,9.14
2023-01-09T02:54:21.967Z,9.19
2023-01-09T02:57:41.871Z,9.25
2023-01-09T03:00:57.293Z,9.22
2023-01-09T03:04:10.491Z,9.14
2023-01-09T03:07:22.218Z,9.12
2023-01-09T03:10:33.198Z,9.14
2023-01-09T03:13:42.807Z,9.16
2023-01-09T03:16:49.374Z,9.10
2023-01-09T03:19:55.376Z,9.13
2023-01-09T03:23:00.294Z,9.12
2023-01-09T03:26:02.987Z,9.19
2023-01-09T03:29:05.855Z,9.18
2023-01-09T03:32:08.532Z,9.13
2023-01-09T03:35:12.578Z,9.12
2023-01-09T03:38:18.061Z,9.10
2023-01-09T03:41:21.254Z,9.16
2023-01-09T03:44:24.084Z,9.13
2023-01-09T03:47:26.804Z,9.11
2023-01-09T03:50:30.920Z,9.12
2023-01-09T03:53:33.640Z,9.02
2023-01-09T03:56:36.334Z,8.91
2023-01-09T03:59:39.289Z,8.93
2023-01-09T04:02:42.481Z,8.88
2023-01-09T04:05:47.834Z,8.75
2023-01-09T04:08:50.537Z,8.50
2023-01-09T04:11:53.215Z,8.42
2023-01-09T04:14:55.959Z,8.15
2023-01-09T04:17:58.657Z,7.95
2023-01-09T04:21:02.711Z,7.90
2023-01-09T04:24:06.290Z,7.80
2023-01-09T04:27:08.935Z,7.83
2023-01-09T04:30:12.926Z,7.86
2023-01-09T04:33:15.606Z,7.84
2023-01-09T04:36:19.813Z,7.90
2023-01-09T04:39:23.017Z,7.89
2023-01-09T04:42:25.770Z,7.88
2023-01-09T04:45:28.519Z,7.87
2023-01-09T04:48:31.187Z,7.78
2023-01-09T04:51:35.316Z,7.79
2023-01-09T04:54:39.480Z,7.75
2023-01-09T04:57:42.157Z,7.72
2023-01-09T05:00:44.883Z,7.62
2023-01-09T05:03:47.697Z,7.67
2023-01-09T05:06:51.878Z,7.75
2023-01-09T05:09:54.486Z,7.75
2023-01-09T05:12:57.124Z,7.78
2023-01-09T05:15:59.790Z,7.75
2023-01-09T05:19:02.561Z,7.72
2023-01-09T05:22:06.671Z,7.72
2023-01-09T05:25:10.011Z,7.67
2023-01-09T05:28:12.669Z,7.61
2023-01-09T05:31:15.334Z,7.51
2023-01-09T05:34:18.036Z,7.60
2023-01-09T05:37:22.279Z,7.65
2023-01-09T05:40:32.088Z,7.63
2023-01-09T05:43:35.339Z,7.65
2023-01-09T05:46:38.031Z,7.59
2023-01-09T05:49:40.708Z,7.53
2023-01-09T05:52:44.676Z,7.48
2023-01-09T05:55:47.403Z,7.49
2023-01-09T05:58:50.043Z,7.55
2023-01-09T06:01:54.268Z,7.42
2023-01-09T06:04:57.008Z,7.33
2023-01-09T06:08:01.053Z,7.38
2023-01-09T06:11:03.682Z,7.34
2023-01-09T06:14:06.774Z,7.34
2023-01-09T06:17:10.557Z,7.32
2023-01-09T06:20:13.638Z,7.24
2023-01-09T06:23:17.674Z,7.23
2023-01-09T06:26:20.397Z,7.35
2023-01-09T06:29:22.986Z,7.35
2023-01-09T06:32:25.914Z,7.15
2023-01-09T06:35:28.960Z,7.11
2023-01-09T06:38:33.403Z,7.05
2023-01-09T06:41:37.368Z,7.02
2023-01-09T06:44:41.415Z,6.95
2023-01-09T06:47:44.163Z,7.05
2023-01-09T06:50:48.785Z,7.14
2023-01-09T06:53:52.749Z,7.17
2023-01-09T06:56:55.388Z,7.18
2023-01-09T06:59:58.057Z,7.15
2023-01-09T07:03:01.129Z,7.23
2023-01-09T07:06:04.404Z,7.21
2023-01-09T07:09:08.401Z,7.16
2023-01-09T07:12:11.084Z,7.24
2023-01-09T07:15:14.039Z,7.24
2023-01-09T07:18:16.778Z,7.25
2023-01-09T07:21:19.405Z,7.18
2023-01-09T07:24:23.383Z,7.16
2023-01-09T07:27:26.043Z,7.19
2023-01-09T07:30:29.195Z,7.28
2023-01-09T07:33:32.296Z,7.29
2023-01-09T07:36:34.979Z,7.37
2023-01-09T07:39:39.063Z,7.31
2023-01-09T07:42:41.696Z,7.42
2023-01-09T07:45:44.374Z,7.38
2023-01-09T07:48:46.992Z,7.35
2023-01-09T07:51:49.649Z,7.32
2023-01-09T07:54:53.680Z,7.29
2023-01-09T07:57:56.313Z,7.23
2023-01-09T08:00:59.053Z,7.25
2023-01-09T08:04:01.725Z,7.32
2023-01-09T08:07:04.428Z,7.37
2023-01-09T08:10:10.465Z,7.31
2023-01-09T08:13:13.171Z,7.40
2023-01-09T08:16:16.191Z,7.47
2023-01-09T08:19:18.902Z,7.46
2023-01-09T08:22:21.525Z,7.53
2023-01-09T08:25:25.587Z,7.63
2023-01-09T08:28:28.465Z,7.63
2023-01-09T08:31:31.154Z,7.67
2023-01-09T08:34:33.840Z,7.60
2023-01-09T08:37:37.110Z,7.61
2023-01-09T08:40:41.234Z,7.66
2023-01-09T08:44:01.633Z,7.73
2023-01-09T08:47:07.026Z,7.73
2023-01-09T08:50:10.618Z,7.78
2023-01-09T08:53:13.886Z,7.88
2023-01-09T08:56:18.222Z,7.89
2023-01-09T08:59:20.927Z,7.91
2023-01-09T09:02:23.646Z,8.00
2023-01-09T09:05:28.665Z,7.99
2023-01-09T09:08:31.280Z,7.95
2023-01-09T09:11:35.513Z,7.98
2023-01-09T09:14:55.717Z,8.00
2023-01-09T09:18:00.607Z,7.95
2023-01-09T09:21:03.451Z,8.07
2023-01-09T09:24:06.364Z,8.27
2023-01-09T09:27:10.365Z,8.34
2023-01-09T09:30:14.993Z,8.57
2023-01-09T09:33:17.633Z,8.75
2023-01-09T09:36:20.281Z,8.90
2023-01-09T09:39:22.916Z,9.11
2023-01-09T09:43:01.124Z,10.13
2023-01-09T09:46:10.801Z,10.28
2023-01-09T09:49:19.302Z,10.55
2023-01-09T09:52:31.462Z,10.47
2023-01-09T09:55:36.364Z,10.13
2023-01-09T09:58:42.346Z,9.73
2023-01-09T10:01:51.811Z,9.39
2023-01-09T10:05:00.464Z,9.25
2023-01-09T10:08:15.802Z,9.07
2023-01-09T10:11:24.450Z,8.84
2023-01-09T10:14:29.528Z,9.02
2023-01-09T10:17:45.432Z,9.07
2023-01-09T10:21:00.894Z,9.12
2023-01-09T10:24:20.948Z,9.13
2023-01-09T10:27:34.460Z,9.19
2023-01-09T10:30:45.251Z,9.16
2023-01-09T10:33:55.700Z,9.14
2023-01-09T10:37:06.871Z,9.14
2023-01-09T10:40:20.523Z,9.28
2023-01-09T10:43:30.571Z,9.24
2023-01-09T10:46:41.924Z,9.22
2023-01-09T10:49:46.403Z,9.28
2023-01-09T10:52:51.273Z,9.47
2023-01-09T10:55:56.948Z,9.64
2023-01-09T10:58:59.606Z,9.78
2023-01-09T11:02:04.443Z,9.76
2023-01-09T11:05:07.822Z,9.66
2023-01-09T11:08:22.683Z,9.73
2023-01-09T11:11:37.934Z,9.81
2023-01-09T11:14:40.657Z,9.65
2023-01-09T11:17:45.006Z,9.44
2023-01-09T11:20:47.739Z,9.45
2023-01-09T11:23:50.697Z,9.44
2023-01-09T11:26:55.812Z,9.83
2023-01-09T11:30:17.788Z,10.34
2023-01-09T11:33:25.567Z,11.08
2023-01-09T11:36:28.633Z,11.07
2023-01-09T11:39:33.900Z,11.38
2023-01-09T11:42:54.621Z,11.96
2023-01-09T11:46:01.430Z,12.58
2023-01-09T11:49:20.766Z,13.69
2023-01-09T11:52:23.480Z,14.34
2023-01-09T11:55:34.713Z,13.89
2023-01-09T11:58:42.726Z,13.21
2023-01-09T12:02:06.750Z,12.64
2023-01-09T12:05:24.244Z,12.19
2023-01-09T12:08:37.662Z,11.97
2023-01-09T12:11:48.692Z,11.84
2023-01-09T12:15:04.250Z,11.40
2023-01-09T12:18:26.002Z,11.06
2023-01-09T12:21:35.206Z,10.74
2023-01-09T12:25:03.235Z,10.57
2023-01-09T12:28:26.924Z,10.27
2023-01-09T12:31:48.259Z,10.14
2023-01-09T12:34:59.153Z,10.13
2023-01-09T12:38:18.065Z,10.00
2023-01-09T12:41:36.001Z,9.86
2023-01-09T12:45:00.357Z,9.91
2023-01-09T12:48:09.356Z,10.00
2023-01-09T12:51:34.601Z,10.03
2023-01-09T12:54:44.821Z,10.15
2023-01-09T12:57:50.140Z,10.03
2023-01-09T13:00:56.065Z,9.93
2023-01-09T13:04:10.039Z,9.84
2023-01-09T13:07:19.017Z,9.81
2023-01-09T13:10:27.238Z,9.95
2023-01-09T13:13:36.228Z,9.95
2023-01-09T13:16:43.343Z,9.79
2023-01-09T13:19:46.243Z,9.66
2023-01-09T13:22:50.833Z,9.43
2023-01-09T13:25:57.663Z,9.34
2023-01-09T13:29:04.319Z,9.23
2023-01-09T13:32:34.146Z,9.20
2023-01-09T13:35:49.174Z,9.31
2023-01-09T13:38:52.289Z,9.19
2023-01-09T13:42:17.960Z,9.11
2023-01-09T13:45:25.491Z,9.03
2023-01-09T13:48:39.840Z,9.04
2023-01-09T13:51:59.860Z,9.07
2023-01-09T13:55:23.635Z,9.04
2023-01-09T13:58:29.493Z,8.98
2023-01-09T14:01:43.768Z,8.90
2023-01-09T14:04:46.584Z,8.78
2023-01-09T14:07:51.529Z,8.96
2023-01-09T14:10:57.790Z,9.09
2023-01-09T14:14:05.580Z,9.08
2023-01-09T14:17:17.690Z,9.01
2023-01-09T14:20:28.120Z,8.89
2023-01-09T14:23:51.072Z,8.79
2023-01-09T14:26:57.178Z,8.65
2023-01-09T14:30:28.581Z,8.52
2023-01-09T14:33:32.853Z,8.51
2023-01-09T14:36:37.448Z,8.57
2023-01-09T14:39:43.957Z,8.64
2023-01-09T14:42:50.515Z,8.48
2023-01-09T14:46:00.043Z,8.41
2023-01-09T14:49:08.018Z,8.45
2023-01-09T14:52:19.989Z,8.40
2023-01-09T14:55:27.722Z,8.50
2023-01-09T14:58:32.271Z,8.39
2023-01-09T15:01:37.627Z,8.30
2023-01-09T15:04:43.397Z,8.31
2023-01-09T15:07:51.747Z,8.20
2023-01-09T15:10:56.030Z,8.11
2023-01-09T15:14:00.152Z,8.10
2023-01-09T15:17:05.275Z,8.15
2023-01-09T15:20:16.937Z,8.25
2023-01-09T15:23:23.912Z,8.23
2023-01-09T15:26:28.524Z,8.28
2023-01-09T15:29:31.198Z,8.39
2023-01-09T15:32:36.693Z,8.39
2023-01-09T15:35:43.298Z,8.37
2023-01-09T15:38:47.658Z,8.33
2023-01-09T15:42:08.286Z,8.17
2023-01-09T15:45:24.732Z,7.79
2023-01-09T15:48:32.301Z,7.52
2023-01-09T15:51:35.056Z,7.32
2023-01-09T15:54:38.578Z,7.08
2023-01-09T15:57:51.728Z,6.94
2023-01-09T16:00:57.511Z,6.85
2023-01-09T16:04:08.441Z,6.82
2023-01-09T16:07:16.277Z,6.83
2023-01-09T16:10:24.687Z,6.86
2023-01-09T16:13:29.618Z,6.85
2023-01-09T16:16:35.111Z,6.87
2023-01-09T16:19:49.122Z,6.89
2023-01-09T16:22:53.964Z,6.96
2023-01-09T16:26:07.361Z,6.92
2023-01-09T16:29:35.484Z,6.86
2023-01-09T16:32:51.333Z,6.82
2023-01-09T16:35:55.879Z,6.79
2023-01-09T16:39:00.796Z,6.76
2023-01-09T16:42:26.445Z,6.76
2023-01-09T16:45:32.160Z,6.77
2023-01-09T16:48:35.024Z,6.83
2023-01-09T16:51:39.128Z,6.84
2023-01-09T16:54:43.509Z,6.81
2023-01-09T16:57:46.489Z,6.79
2023-01-09T17:00:49.155Z,6.80
2023-01-09T17:03:52.546Z,6.84
2023-01-09T17:06:56.581Z,6.93
2023-01-09T17:09:59.316Z,6.93
2023-01-09T17:13:02.016Z,6.98
2023-01-09T17:16:05.687Z,7.02
2023-01-09T17:19:13.984Z,7.08
2023-01-09T17:22:18.335Z,7.06
2023-01-09T17:25:38.339Z,7.08
2023-01-09T17:28:44.647Z,7.11
2023-01-09T17:31:47.364Z,7.15
2023-01-09T17:34:50.077Z,7.15
2023-01-09T17:37:54.071Z,7.23
2023-01-09T17:40:56.724Z,7.20
2023-01-09T17:44:00.536Z,7.18
2023-01-09T17:47:03.175Z,7.24
2023-01-09T17:50:07.395Z,7.17
2023-01-09T17:53:11.601Z,7.25
2023-01-09T17:56:18.370Z,7.17
2023-01-09T17:59:21.060Z,7.07
2023-01-09T18:02:23.921Z,7.15
2023-01-09T18:05:27.617Z,7.14
2023-01-09T18:08:31.743Z,7.20
2023-01-09T18:11:35.275Z,7.18
2023-01-09T18:14:39.036Z,7.21
2023-01-09T18:17:41.856Z,7.20
2023-01-09T18:20:45.544Z,7.25
2023-01-09T18:23:50.223Z,7.27
2023-01-09T18:26:53.532Z,7.30
2023-01-09T18:29:56.824Z,7.17
2023-01-09T18:33:00.013Z,7.14
2023-01-09T18:36:07.104Z,7.07
2023-01-09T18:39:12.810Z,7.04
2023-01-09T18:42:15.879Z,7.05
2023-01-09T18:45:18.770Z,6.97
2023-01-09T18:48:21.498Z,7.03
2023-01-09T18:51:26.011Z,7.03
2023-01-09T18:54:30.010Z,6.99
2023-01-09T18:57:32.801Z,6.92
2023-01-09T19:00:36.619Z,6.95
2023-01-09T19:03:39.322Z,7.05
2023-01-09T19:06:42.042Z,7.06
2023-01-09T19:09:46.473Z,7.02
2023-01-09T19:12:49.155Z,6.98
2023-01-09T19:15:54.849Z,6.85
2023-01-09T19:18:58.208Z,6.91
2023-01-09T19:22:00.853Z,6.80
2023-01-09T19:25:05.368Z,6.73
2023-01-09T19:28:08.186Z,6.81
2023-01-09T19:31:11.006Z,6.82
2023-01-09T19:34:14.464Z,6.77
2023-01-09T19:37:18.312Z,6.72
2023-01-09T19:40:22.442Z,6.66
2023-01-09T19:43:28.263Z,6.67
2023-01-09T19:46:33.460Z,6.62
2023-01-09T19:49:36.180Z,6.63
2023-01-09T19:52:38.923Z,6.70
2023-01-09T19:55:42.930Z,6.58
2023-01-09T19:58:51.000Z,6.57
2023-01-09T20:01:55.160Z,6.55
2023-01-09T20:04:57.890Z,6.50
2023-01-09T20:08:00.554Z,6.53
2023-01-09T20:11:07.320Z,6.59
2023-01-09T20:14:12.458Z,6.57
2023-01-09T20:17:16.529Z,6.57
2023-01-09T20:23:22.440Z,6.69
2023-01-09T20:26:27.604Z,6.64
2023-01-09T20:29:30.559Z,6.59
2023-01-09T20:32:33.775Z,6.58
2023-01-09T20:35:36.697Z,6.56
2023-01-09T20:38:40.561Z,6.57
2023-01-09T20:41:45.233Z,6.56
2023-01-09T20:44:48.406Z,6.50
2023-01-09T20:47:51.507Z,6.52
2023-01-09T20:50:54.143Z,6.49
2023-01-09T20:53:58.239Z,6.53
2023-01-09T20:57:02.285Z,6.39
2023-01-09T21:00:05.849Z,6.43
2023-01-09T21:03:08.497Z,6.38
2023-01-09T21:06:12.979Z,6.38
2023-01-09T21:09:15.657Z,6.42
2023-01-09T21:12:35.594Z,6.34
2023-01-09T21:15:38.990Z,6.38
2023-01-09T21:18:43.253Z,6.41
2023-01-09T21:21:45.927Z,6.36
2023-01-09T21:24:49.912Z,6.39
2023-01-09T21:27:54.264Z,6.35
2023-01-09T21:30:56.953Z,6.35
2023-01-09T21:33:59.692Z,6.35
2023-01-09T21:37:02.445Z,6.38
2023-01-09T21:40:08.553Z,6.32
2023-01-09T21:43:42.971Z,6.36
2023-01-09T21:46:56.052Z,6.38
2023-01-09T21:49:58.898Z,6.44
2023-01-09T21:53:01.543Z,6.50
2023-01-09T21:56:04.656Z,6.52
2023-01-09T21:59:08.825Z,6.56
2023-01-09T22:02:13.028Z,6.57
2023-01-09T22:05:15.838Z,6.52
2023-01-09T22:08:18.546Z,6.51
2023-01-09T22:11:21.228Z,6.46
2023-01-09T22:14:25.373Z,6.47
2023-01-09T22:17:29.182Z,6.51
2023-01-09T22:20:31.823Z,6.57
2023-01-09T22:23:34.538Z,6.61
2023-01-09T22:26:37.204Z,6.61
2023-01-09T22:29:41.302Z,6.60
2023-01-09T22:32:43.887Z,6.67
2023-01-09T22:35:46.521Z,6.70
2023-01-09T22:38:49.116Z,6.68
2023-01-09T22:41:55.001Z,6.65
2023-01-09T22:44:58.975Z,6.65
2023-01-09T22:48:01.617Z,6.70
2023-01-09T22:51:06.114Z,6.67
2023-01-09T22:54:08.788Z,6.69
2023-01-09T22:57:11.469Z,6.78
2023-01-09T23:00:16.467Z,6.81
2023-01-09T23:03:19.176Z,6.78
2023-01-09T23:06:23.091Z,6.74
2023-01-09T23:09:26.552Z,6.71
2023-01-09T23:12:29.229Z,6.63
2023-01-09T23:15:33.367Z,6.68
2023-01-09T23:18:36.103Z,6.70
2023-01-09T23:21:38.729Z,6.67
2023-01-09T23:24:41.411Z,6.57
2023-01-09T23:27:44.101Z,6.64
2023-01-09T23:30:48.960Z,6.51
2023-01-09T23:33:51.677Z,6.52
2023-01-09T23:36:57.429Z,6.51
2023-01-09T23:40:00.247Z,6.58
2023-01-09T23:43:11.760Z,6.53
2023-01-09T23:46:15.812Z,6.62
2023-01-09T23:49:18.676Z,6.62
2023-01-09T23:52:21.359Z,6.59
2023-01-09T23:55:24.036Z,6.64
2023-01-09T23:58:27.374Z,6.67
